Time;durP1;ratioP1;P1;durP2;ratioP2;P2;SDS_P1;SDS_P2;PMS_P1;PMS_P2;Temp;Humidity;BMP_temperature;BMP_pressure;BME280_temperature;BME280_humidity;BME280_pressure;Samples;Min_cycle;Max_cycle;Signal;HPM_P1;HPM_P2
2022/10/31 00:00:59;;;;;;;31.15;4.15;;;;;;;17.39;100.00;100461.22;6222989;23;20464;-96
2022/10/31 00:03:26;;;;;;;30.73;3.65;;;;;;;17.17;100.00;100470.41;6222894;23;20008;-95
2022/10/31 00:05:52;;;;;;;28.10;3.85;;;;;;;17.09;100.00;100467.63;6223572;23;20004;-95
2022/10/31 00:08:18;;;;;;;16.98;2.72;;;;;;;17.33;100.00;100472.44;6222491;23;20012;-95
2022/10/31 00:10:45;;;;;;;28.55;4.45;;;;;;;17.18;100.00;100465.91;6223887;23;20012;-95
2022/10/31 00:13:13;;;;;;;21.08;4.55;;;;;;;17.44;100.00;100458.16;6223742;23;20054;-96
2022/10/31 00:15:40;;;;;;;29.23;3.55;;;;;;;17.46;100.00;100456.19;6223966;23;20004;-95
2022/10/31 00:18:07;;;;;;;22.73;3.47;;;;;;;17.65;100.00;100452.56;6223304;23;20501;-96
2022/10/31 00:20:34;;;;;;;22.23;3.53;;;;;;;17.70;100.00;100455.63;6223252;23;20117;-96
2022/10/31 00:23:00;;;;;;;18.27;2.70;;;;;;;17.51;100.00;100448.59;6223270;23;20004;-96
2022/10/31 00:25:28;;;;;;;18.38;3.75;;;;;;;17.58;100.00;100448.84;6222820;23;20011;-96
2022/10/31 00:27:54;;;;;;;24.25;3.42;;;;;;;17.23;100.00;100440.63;6223542;23;20004;-96
2022/10/31 00:30:20;;;;;;;20.08;3.28;;;;;;;17.21;100.00;100433.81;6222732;23;20007;-96
2022/10/31 00:32:46;;;;;;;37.03;3.55;;;;;;;17.14;100.00;100448.63;6247598;23;20060;-96
2022/10/31 00:35:14;;;;;;;21.08;3.55;;;;;;;17.20;100.00;100437.41;6222149;23;20004;-96
2022/10/31 00:37:40;;;;;;;19.38;3.65;;;;;;;17.14;100.00;100433.56;6222959;23;20330;-96
2022/10/31 00:40:06;;;;;;;17.42;2.88;;;;;;;17.10;100.00;100439.28;6222366;23;20008;-96
2022/10/31 00:42:31;;;;;;;23.95;3.47;;;;;;;16.94;100.00;100432.81;6222830;23;20059;-96
2022/10/31 00:44:57;;;;;;;29.63;3.72;;;;;;;16.80;100.00;100441.16;6224064;23;20004;-96
2022/10/31 00:47:23;;;;;;;16.27;3.92;;;;;;;17.14;100.00;100452.13;6223611;23;20007;-96
2022/10/31 00:49:49;;;;;;;21.65;2.85;;;;;;;17.32;100.00;100438.94;6223715;23;20000;-96
2022/10/31 00:52:14;;;;;;;18.35;3.90;;;;;;;17.35;100.00;100440.44;6224658;23;20038;-96
2022/10/31 00:54:40;;;;;;;20.08;4.30;;;;;;;17.41;100.00;100434.53;6223298;23;20054;-95
2022/10/31 00:57:05;;;;;;;21.45;2.95;;;;;;;17.27;100.00;100438.53;6222587;23;20054;-96
2022/10/31 00:59:31;;;;;;;21.80;3.85;;;;;;;17.32;100.00;100438.94;6223773;23;20334;-96
2022/10/31 01:01:57;;;;;;;24.10;2.97;;;;;;;17.29;100.00;100433.91;6223885;23;20034;-96
2022/10/31 01:04:22;;;;;;;29.55;3.58;;;;;;;17.20;100.00;100448.91;6224316;23;20004;-96
2022/10/31 01:06:48;;;;;;;20.38;3.13;;;;;;;17.33;100.00;100437.94;6226531;23;20042;-96
2022/10/31 01:09:14;;;;;;;26.95;4.47;;;;;;;17.48;100.00;100442.75;6224417;23;20373;-96
2022/10/31 01:11:39;;;;;;;20.70;3.28;;;;;;;17.37;100.00;100439.31;6223199;23;20272;-95
2022/10/31 01:14:05;;;;;;;28.55;4.20;;;;;;;17.43;100.00;100436.06;6225449;23;20034;-96
2022/10/31 01:16:33;;;;;;;28.52;3.88;;;;;;;17.35;100.00;100443.09;6225022;23;20004;-95
2022/10/31 01:18:59;;;;;;;19.17;2.65;;;;;;;17.39;100.00;100441.81;6227324;23;20134;-95
2022/10/31 01:21:27;;;;;;;25.15;4.45;;;;;;;17.27;100.00;100427.91;6224059;23;20008;-96
2022/10/31 01:23:54;;;;;;;20.48;3.25;;;;;;;17.18;100.00;100431.44;6224850;23;20015;-96
2022/10/31 01:26:27;;;;;;;17.83;2.88;;;;;;;17.13;100.00;100431.88;6225653;23;20008;-95
2022/10/31 01:28:58;;;;;;;18.17;2.90;;;;;;;17.16;100.00;100441.34;6222992;23;20012;-96
2022/10/31 01:31:27;;;;;;;30.85;5.03;;;;;;;17.10;100.00;100440.16;6222590;23;20004;-96
2022/10/31 01:33:53;;;;;;;18.08;2.83;;;;;;;17.11;100.00;100430.34;6223387;23;20027;-95
2022/10/31 01:36:31;;;;;;;18.15;3.17;;;;;;;17.16;100.00;100433.38;6224886;23;20011;-96
2022/10/31 01:39:10;;;;;;;18.13;2.40;;;;;;;17.17;100.00;100435.91;6225483;23;20028;-96
2022/10/31 01:41:39;;;;;;;9.75;2.33;;;;;;;17.08;100.00;100434.16;6225248;23;20001;-96
2022/10/31 01:44:13;;;;;;;20.10;3.30;;;;;;;17.18;100.00;100455.31;6224819;23;20010;-96
2022/10/31 01:46:53;;;;;;;13.50;2.60;;;;;;;17.13;100.00;100436.34;6226152;23;20019;-96
2022/10/31 01:49:34;;;;;;;26.88;3.28;;;;;;;17.23;100.00;100461.03;6226021;23;20008;-96
2022/10/31 01:52:37;;;;;;;21.00;3.35;;;;;;;16.91;100.00;100438.38;6225734;23;20187;-95
2022/10/31 01:55:17;;;;;;;15.45;2.67;;;;;;;17.00;100.00;100444.63;6223903;23;20004;-96
2022/10/31 01:57:48;;;;;;;23.58;3.83;;;;;;;16.73;100.00;100437.44;6226099;23;20008;-96
2022/10/31 02:00:14;;;;;;;22.25;3.10;;;;;;;16.73;100.00;100432.97;6225263;23;20004;-96
2022/10/31 02:02:41;;;;;;;23.67;4.00;;;;;;;16.76;100.00;100432.66;6225737;23;20334;-94
2022/10/31 02:05:11;;;;;;;20.17;3.08;;;;;;;17.04;100.00;100430.94;6224594;23;20010;-96
2022/10/31 02:07:59;;;;;;;21.17;2.67;;;;;;;16.95;100.00;100431.81;6224980;23;20012;-96
2022/10/31 02:10:25;;;;;;;28.17;3.05;;;;;;;16.86;100.00;100430.00;6224728;23;19992;-93
2022/10/31 02:12:55;;;;;;;19.20;3.17;;;;;;;17.10;100.00;100437.50;6224381;23;20028;-96
2022/10/31 02:15:20;;;;;;;32.40;3.08;;;;;;;17.13;100.00;100449.63;6223396;23;19996;-95
2022/10/31 02:17:46;;;;;;;24.95;3.78;;;;;;;17.10;100.00;100437.50;6224074;23;20371;-96
2022/10/31 02:20:15;;;;;;;20.70;3.00;;;;;;;17.17;100.00;100432.44;6223157;23;20012;-94
2022/10/31 02:23:22;;;;;;;25.13;3.92;;;;;;;17.62;100.00;100440.44;6223545;23;20083;-96
2022/10/31 02:25:50;;;;;;;23.80;3.63;;;;;;;17.36;100.00;100445.59;6223036;23;20083;-96
2022/10/31 02:28:22;;;;;;;27.52;3.13;;;;;;;17.44;100.00;100443.03;6223015;23;20008;-96
2022/10/31 02:31:06;;;;;;;20.50;2.60;;;;;;;17.37;100.00;100449.09;6222258;23;20009;-96
2022/10/31 02:33:46;;;;;;;22.20;3.60;;;;;;;17.35;100.00;100422.69;6222562;23;20015;-96
2022/10/31 02:36:23;;;;;;;21.33;3.42;;;;;;;17.08;100.00;100422.69;6222546;23;20062;-96
2022/10/31 02:39:00;;;;;;;19.80;3.90;;;;;;;17.19;100.00;100433.94;6223342;23;20012;-96
2022/10/31 02:41:42;;;;;;;28.88;5.15;;;;;;;17.26;100.00;100420.94;6224205;23;20004;-96
2022/10/31 02:44:10;;;;;;;;;;;;;;;17.52;100.00;100433.53;6223780;23;20046;-95
2022/10/31 02:46:52;;;;;;;28.92;4.07;;;;;;;17.41;100.00;100422.09;6223889;23;19907;-96
2022/10/31 02:49:49;;;;;;;23.98;3.20;;;;;;;17.22;100.00;100427.53;6223680;23;20091;-96
2022/10/31 02:52:20;;;;;;;15.95;3.00;;;;;;;17.15;100.00;100415.81;6223354;23;20134;-95
2022/10/31 02:54:47;;;;;;;23.00;3.38;;;;;;;16.92;100.00;100424.13;6223252;23;20011;-96
2022/10/31 02:57:15;;;;;;;20.40;2.90;;;;;;;17.02;100.00;100402.88;6223364;23;20008;-95
2022/10/31 02:59:47;;;;;;;27.13;3.08;;;;;;;17.02;100.00;100406.38;6223166;23;20011;-95
2022/10/31 03:02:37;;;;;;;21.38;3.75;;;;;;;17.15;100.00;100418.47;6223276;23;20000;-95
2022/10/31 03:05:12;;;;;;;29.73;3.05;;;;;;;17.03;100.00;100416.00;6223345;23;20000;-95
2022/10/31 03:08:02;;;;;;;22.75;2.67;;;;;;;17.01;100.00;100403.88;6223059;23;20087;-96
2022/10/31 03:10:40;;;;;;;13.65;2.58;;;;;;;17.01;100.00;100378.19;6223338;23;20054;-95
2022/10/31 03:13:31;;;;;;;23.10;3.50;;;;;;;16.93;100.00;100379.91;6224959;23;20011;-95
2022/10/31 03:16:03;;;;;;;23.63;2.83;;;;;;;17.03;100.00;100373.56;6223327;23;20330;-95
2022/10/31 03:18:37;;;;;;;26.88;4.43;;;;;;;16.81;100.00;100376.56;6223608;23;20066;-95
2022/10/31 03:21:13;;;;;;;19.27;3.53;;;;;;;16.72;100.00;100388.03;6223425;23;20094;-95
2022/10/31 03:23:41;;;;;;;24.80;3.00;;;;;;;16.69;100.00;100383.03;6223245;23;20015;-94
2022/10/31 03:26:09;;;;;;;20.92;3.38;;;;;;;16.52;100.00;100377.47;6222871;23;20000;-95
2022/10/31 03:28:45;;;;;;;28.40;3.58;;;;;;;16.61;100.00;100376.63;6223568;23;20008;-95
2022/10/31 03:31:16;;;;;;;26.13;3.35;;;;;;;16.62;100.00;100362.38;6223138;23;20059;-95
2022/10/31 03:33:43;;;;;;;35.90;3.35;;;;;;;16.38;100.00;100375.28;6222807;23;20000;-94
2022/10/31 03:36:11;;;;;;;27.88;4.07;;;;;;;16.28;100.00;100377.13;6222456;23;20423;-96
2022/10/31 03:38:39;;;;;;;31.88;3.78;;;;;;;16.50;100.00;100379.44;6222923;23;20400;-94
2022/10/31 03:41:07;;;;;;;32.72;3.38;;;;;;;16.72;100.00;100388.03;6224416;23;20008;-96
2022/10/31 03:43:40;;;;;;;30.00;3.47;;;;;;;16.77;100.00;100381.31;6222522;23;19996;-95
2022/10/31 03:46:06;;;;;;;25.95;3.70;;;;;;;16.82;100.00;100367.66;6223762;23;20000;-94
2022/10/31 03:48:32;;;;;;;18.33;2.35;;;;;;;16.80;100.00;100362.44;6222609;23;20008;-95
2022/10/31 03:51:14;;;;;;;24.33;2.58;;;;;;;16.91;100.00;100372.09;6222422;23;20004;-95
2022/10/31 03:54:23;;;;;;;23.38;3.80;;;;;;;16.70;100.00;100371.44;6222360;23;20438;-94
2022/10/31 03:57:00;;;;;;;25.75;3.40;;;;;;;16.62;100.00;100372.16;6220294;23;20005;-95
2022/10/31 03:59:32;;;;;;;30.15;3.45;;;;;;;16.68;100.00;100381.34;6222449;23;20004;-95
2022/10/31 04:02:06;;;;;;;22.52;3.63;;;;;;;16.68;100.00;100370.75;6222558;23;20008;-96
2022/10/31 04:04:33;;;;;;;22.38;3.35;;;;;;;16.63;100.00;100358.75;6223311;23;20035;-96
2022/10/31 04:07:01;;;;;;;29.83;5.28;;;;;;;16.73;100.00;100360.56;6223428;23;20091;-96
2022/10/31 04:09:31;;;;;;;25.80;3.63;;;;;;;17.02;100.00;100363.94;6225148;23;20438;-96
2022/10/31 04:11:59;;;;;;;31.10;4.45;;;;;;;16.95;100.00;100362.84;6225983;23;20000;-96
2022/10/31 04:14:29;;;;;;;20.10;3.58;;;;;;;16.98;100.00;100351.09;6224284;23;20087;-95
2022/10/31 04:16:54;;;;;;;23.65;2.83;;;;;;;16.74;100.00;100367.50;6221883;23;20004;-96
2022/10/31 04:19:20;;;;;;;15.98;2.55;;;;;;;16.83;100.00;100354.25;6221946;23;20027;-96
2022/10/31 04:21:45;;;;;;;17.55;2.60;;;;;;;16.93;100.00;100358.69;6221911;23;20008;-96
2022/10/31 04:24:11;;;;;;;25.77;4.43;;;;;;;16.97;100.00;100362.72;6221037;23;20000;-96
2022/10/31 04:26:37;;;;;;;20.08;3.03;;;;;;;16.99;100.00;100355.44;6220800;23;20019;-95
2022/10/31 04:29:03;;;;;;;21.65;2.85;;;;;;;17.16;100.00;100359.09;6221292;23;20020;-96
2022/10/31 04:31:28;;;;;;;29.20;4.13;;;;;;;16.93;100.00;100356.03;6221640;23;20004;-95
2022/10/31 04:33:54;;;;;;;24.92;3.22;;;;;;;17.03;100.00;100365.59;6220780;23;20334;-95
2022/10/31 04:36:20;;;;;;;27.17;3.20;;;;;;;17.12;100.00;100368.34;6220659;23;20003;-95
2022/10/31 04:38:45;;;;;;;18.00;3.63;;;;;;;17.21;100.00;100368.28;6220542;23;20000;-95
2022/10/31 04:41:11;;;;;;;17.45;2.80;;;;;;;17.23;100.00;100365.50;6221295;23;20008;-96
2022/10/31 04:43:36;;;;;;;27.55;2.72;;;;;;;17.23;100.00;100352.22;6221616;23;20004;-96
2022/10/31 04:46:02;;;;;;;17.73;3.13;;;;;;;17.32;100.00;100356.66;6220669;23;20414;-95
2022/10/31 04:48:27;;;;;;;27.63;3.13;;;;;;;17.30;100.00;100363.94;6221437;23;20014;-95
2022/10/31 04:50:57;;;;;;;19.02;3.05;;;;;;;17.38;100.00;100355.22;6221265;23;20066;-95
2022/10/31 04:53:23;;;;;;;21.85;2.70;;;;;;;17.27;100.00;100364.22;6221461;23;20007;-96
2022/10/31 04:55:49;;;;;;;27.58;2.85;;;;;;;17.20;100.00;100358.69;6221342;23;20430;-95
2022/10/31 04:58:14;;;;;;;19.05;2.15;;;;;;;17.14;100.00;100356.63;6221027;23;20015;-95
2022/10/31 05:00:39;;;;;;;28.10;3.60;;;;;;;17.15;100.00;100360.94;6221137;23;20015;-96
2022/10/31 05:03:05;;;;;;;21.50;3.33;;;;;;;17.34;100.00;100337.94;6221876;23;20008;-96
2022/10/31 05:05:31;;;;;;;28.50;3.60;;;;;;;17.03;100.00;100341.72;6220744;23;20312;-96
2022/10/31 05:07:57;;;;;;;17.55;2.53;;;;;;;17.05;100.00;100337.09;6220789;23;20083;-95
2022/10/31 05:10:28;;;;;;;17.88;4.10;;;;;;;17.11;100.00;100341.00;6221697;23;20064;-95
2022/10/31 05:12:56;;;;;;;14.65;2.55;;;;;;;17.18;100.00;100333.25;6221650;23;20461;-95
2022/10/31 05:15:23;;;;;;;19.55;2.60;;;;;;;17.17;100.00;100340.38;6220761;23;20338;-96
2022/10/31 05:17:49;;;;;;;21.27;3.00;;;;;;;17.24;100.00;100345.97;6221592;23;20015;-95
2022/10/31 05:20:17;;;;;;;17.45;3.15;;;;;;;17.22;100.00;100326.69;6221275;23;20004;-96
2022/10/31 05:22:44;;;;;;;21.20;2.50;;;;;;;17.18;100.00;100342.06;6221011;23;20330;-95
2022/10/31 05:25:10;;;;;;;21.52;2.90;;;;;;;17.05;100.00;100336.28;6220696;23;20337;-96
2022/10/31 05:27:38;;;;;;;31.33;3.33;;;;;;;17.07;100.00;100323.69;6220938;23;20043;-95
2022/10/31 05:30:05;;;;;;;25.60;3.67;;;;;;;17.17;100.00;100310.38;6222089;23;20008;-96
2022/10/31 05:32:39;;;;;;;20.30;3.15;;;;;;;17.21;100.00;100314.41;6221546;23;20591;-95
2022/10/31 05:35:09;;;;;;;11.98;2.92;;;;;;;17.11;100.00;100325.06;6221128;23;20061;-96
2022/10/31 05:37:35;;;;;;;21.42;3.88;;;;;;;16.90;100.00;100320.00;6222109;23;20004;-96
2022/10/31 05:40:02;;;;;;;23.90;3.78;;;;;;;16.68;100.00;100315.91;6222813;23;20110;-95
2022/10/31 05:42:28;;;;;;;27.63;3.33;;;;;;;16.52;100.00;100303.25;6221102;23;20410;-96
2022/10/31 05:44:53;;;;;;;28.05;4.70;;;;;;;16.53;100.00;100296.13;6220863;23;20004;-96
2022/10/31 05:47:19;;;;;;;18.67;3.30;;;;;;;16.83;100.00;100306.53;6221339;23;20004;-96
2022/10/31 05:49:45;;;;;;;23.23;3.13;;;;;;;16.76;100.00;100291.31;6220997;23;20422;-96
2022/10/31 05:52:10;;;;;;;22.88;3.05;;;;;;;16.45;100.00;100292.41;6221701;23;20087;-95
2022/10/31 05:54:36;;;;;;;20.85;2.95;;;;;;;16.62;100.00;100293.47;6222207;23;20005;-95
2022/10/31 05:57:01;;;;;;;17.45;3.00;;;;;;;16.55;100.00;100289.75;6220648;23;20004;-96
2022/10/31 05:59:27;;;;;;;25.10;4.78;;;;;;;16.55;100.00;100294.22;6221935;23;20012;-96
2022/10/31 06:01:53;;;;;;;25.38;2.95;;;;;;;16.43;100.00;100288.25;6224446;23;20083;-96
2022/10/31 06:04:18;;;;;;;19.42;3.15;;;;;;;16.32;100.00;100286.59;6222591;23;20004;-96
2022/10/31 06:06:44;;;;;;;31.95;3.50;;;;;;;16.03;100.00;100281.38;6222841;23;20007;-96
2022/10/31 06:09:10;;;;;;;26.73;3.80;;;;;;;15.94;100.00;100277.78;6222149;23;20008;-96
2022/10/31 06:11:35;;;;;;;29.60;3.05;;;;;;;15.84;100.00;100276.97;6221939;23;20007;-95
2022/10/31 06:14:01;;;;;;;27.02;3.50;;;;;;;16.12;100.00;100279.69;6222287;23;20036;-96
2022/10/31 06:16:27;;;;;;;21.83;3.75;;;;;;;16.20;100.00;100285.94;6221865;23;20004;-96
2022/10/31 06:18:55;;;;;;;32.78;4.07;;;;;;;15.91;100.00;100282.53;6221577;23;20050;-95
2022/10/31 06:21:21;;;;;;;29.77;4.20;;;;;;;15.94;100.00;100279.59;6221915;23;20062;-96
2022/10/31 06:23:47;;;;;;;32.35;3.70;;;;;;;16.06;100.00;100281.94;6221175;23;20004;-96
2022/10/31 06:26:12;;;;;;;21.10;3.05;;;;;;;16.04;100.00;100280.41;6221276;23;20026;-96
2022/10/31 06:28:38;;;;;;;29.83;3.33;;;;;;;15.82;100.00;100285.03;6222640;23;20011;-95
2022/10/31 06:31:04;;;;;;;23.80;4.15;;;;;;;15.89;100.00;100276.53;6223630;23;20004;-96
2022/10/31 06:33:30;;;;;;;22.65;3.47;;;;;;;15.71;100.00;100282.50;6222106;23;20016;-96
2022/10/31 06:35:55;;;;;;;31.42;3.50;;;;;;;15.96;100.00;100285.59;6221638;23;20027;-96
2022/10/31 06:38:21;;;;;;;23.63;3.25;;;;;;;16.29;100.00;100283.41;6221974;23;20003;-96
2022/10/31 06:40:47;;;;;;;33.30;3.75;;;;;;;15.77;100.00;100281.16;6224095;23;20004;-95
2022/10/31 06:43:14;;;;;;;31.80;3.88;;;;;;;15.96;100.00;100281.13;6223455;23;20004;-96
2022/10/31 06:45:41;;;;;;;34.78;4.05;;;;;;;15.95;100.00;100287.38;6223105;23;20427;-96
2022/10/31 06:48:07;;;;;;;25.83;3.47;;;;;;;15.94;100.00;100285.72;6223431;23;20004;-95
2022/10/31 06:50:32;;;;;;;32.42;4.68;;;;;;;16.01;100.00;100288.63;6224162;23;20004;-94
2022/10/31 06:52:59;;;;;;;29.50;3.70;;;;;;;15.80;100.00;100272.94;6226676;23;20075;-96
2022/10/31 06:55:26;;;;;;;15.80;3.55;;;;;;;15.92;100.00;100268.31;6225773;23;20000;-96
2022/10/31 06:57:57;;;;;;;21.95;3.35;;;;;;;15.97;100.00;100272.19;6225262;23;20004;-95
2022/10/31 07:00:23;;;;;;;26.83;3.43;;;;;;;16.05;100.00;100261.75;6225297;23;20024;-96
2022/10/31 07:02:59;;;;;;;22.83;3.05;;;;;;;16.26;100.00;100274.75;6225903;23;20426;-96
2022/10/31 07:05:25;;;;;;;28.25;3.63;;;;;;;16.15;100.00;100256.41;6225988;23;20000;-96
2022/10/31 07:07:58;;;;;;;24.90;3.72;;;;;;;16.23;100.00;100255.66;6224043;23;20004;-96
2022/10/31 07:10:26;;;;;;;22.90;2.80;;;;;;;16.22;100.00;100252.19;6223369;23;20014;-95
2022/10/31 07:12:56;;;;;;;26.95;3.88;;;;;;;16.10;100.00;100250.69;6223350;23;20015;-96
2022/10/31 07:15:22;;;;;;;23.90;3.28;;;;;;;16.39;100.00;100261.22;6221484;23;20019;-95
2022/10/31 07:17:48;;;;;;;26.35;3.38;;;;;;;16.13;100.00;100241.63;6223072;23;20055;-95
2022/10/31 07:20:14;;;;;;;29.42;4.97;;;;;;;16.42;100.00;100249.47;6227744;23;20004;-95
2022/10/31 07:22:39;;;;;;;25.90;3.35;;;;;;;16.48;100.00;100248.88;6228356;23;20015;-96
2022/10/31 07:25:09;;;;;;;26.27;3.42;;;;;;;16.78;100.00;100270.78;6231610;23;20066;-96
2022/10/31 07:27:40;;;;;;;26.80;3.67;;;;;;;16.87;100.00;100261.16;6235115;23;20012;-96
2022/10/31 07:30:07;;;;;;;27.45;3.03;;;;;;;16.33;100.00;100263.59;6232244;22;20000;-96
2022/10/31 07:32:44;;;;;;;33.65;5.38;;;;;;;15.99;100.00;100275.53;6236062;23;20064;-96
2022/10/31 07:35:15;;;;;;;27.98;4.38;;;;;;;16.17;100.00;100267.69;6233147;23;20323;-96
2022/10/31 07:37:41;;;;;;;30.35;4.63;;;;;;;15.92;100.00;100273.63;6228749;23;20000;-96
2022/10/31 07:40:08;;;;;;;26.00;3.63;;;;;;;16.40;100.00;100269.97;6227541;23;20007;-96
2022/10/31 07:42:38;;;;;;;24.15;3.65;;;;;;;16.22;100.00;100276.03;6222777;23;20422;-95
2022/10/31 07:45:05;;;;;;;18.77;3.30;;;;;;;16.17;100.00;100272.13;6220537;23;20007;-94
2022/10/31 07:47:52;;;;;;;21.52;2.75;;;;;;;16.77;100.00;100285.88;6222966;23;20012;-96
2022/10/31 07:53:10;;;;;;;22.75;3.90;;;;;;;16.46;100.00;100266.75;6252104;22;20028;-96
2022/10/31 07:55:48;;;;;;;23.40;2.65;;;;;;;16.69;100.00;100271.69;6237222;23;20008;-96
2022/10/31 07:58:43;;;;;;;28.45;2.78;;;;;;;16.70;100.00;100274.16;6238260;23;19993;-96
2022/10/31 08:01:16;;;;;;;21.98;2.70;;;;;;;17.48;100.00;100270.22;6235537;23;20004;-96
2022/10/31 08:51:46;;;;;;;;;;;;;;;;;;;;;
2022/10/31 12:40:51;;;;;;;9.32;1.92;;;;;;;22.78;59.43;99873.53;6249884;23;20030;-96
2022/10/31 12:44:01;;;;;;;6.35;1.15;;;;;;;22.52;59.98;99875.03;6224267;23;20008;-96
2022/10/31 12:47:00;;;;;;;3.15;1.00;;;;;;;22.21;60.68;99859.31;6196962;23;20016;-95
2022/10/31 12:50:13;;;;;;;8.23;1.35;;;;;;;23.47;58.87;99866.47;6193722;23;20040;-96
2022/10/31 12:53:18;;;;;;;8.45;1.15;;;;;;;22.72;58.89;99853.72;6195919;23;20091;-96
2022/10/31 12:55:58;;;;;;;11.98;1.52;;;;;;;20.82;63.69;99843.44;6193473;23;20011;-95
2022/10/31 12:59:06;;;;;;;5.07;1.38;;;;;;;21.23;63.54;99845.59;6192692;23;20008;-96
2022/10/31 13:01:36;;;;;;;8.25;1.30;;;;;;;20.49;65.99;99819.75;6191469;23;20000;-94
2022/10/31 13:04:18;;;;;;;5.45;1.23;;;;;;;21.31;64.36;99821.44;6189422;23;20426;-96
2022/10/31 13:10:52;;;;;;;10.25;1.30;;;;;;;20.79;65.78;99809.09;6211752;23;20004;-95
2022/10/31 13:14:23;;;;;;;7.28;1.20;;;;;;;21.11;64.46;99805.22;6191437;23;20012;-96
2022/10/31 13:16:53;;;;;;;3.00;0.90;;;;;;;20.72;65.02;99797.53;6196266;22;20020;-95
2022/10/31 13:19:41;;;;;;;6.47;1.27;;;;;;;20.13;66.84;99801.78;6226618;23;20257;-96
2022/10/31 13:22:28;;;;;;;4.70;1.00;;;;;;;20.04;68.04;99784.22;6222299;23;20008;-96
2022/10/31 13:25:19;;;;;;;6.68;1.00;;;;;;;20.72;67.04;99798.34;6223373;23;20000;-96
2022/10/31 13:27:56;;;;;;;5.65;1.10;;;;;;;20.48;67.47;99766.59;6222879;23;20027;-96
2022/10/31 13:30:25;;;;;;;6.45;1.00;;;;;;;21.39;64.97;99765.25;6220462;23;20004;-96
2022/10/31 13:33:35;;;;;;;7.97;2.47;;;;;;;21.60;65.13;99752.94;6220909;23;20004;-96
2022/10/31 13:36:35;;;;;;;7.47;1.23;;;;;;;21.87;63.24;99753.97;6178582;23;20098;-96
2022/10/31 13:39:34;;;;;;;12.00;1.40;;;;;;;22.31;63.28;99750.19;6221853;23;20215;-96
2022/10/31 13:42:18;;;;;;;12.68;1.83;;;;;;;21.73;62.83;99745.03;6229765;23;20008;-94
2022/10/31 13:44:44;;;;;;;7.57;1.60;;;;;;;21.59;63.55;99729.91;6229883;23;20019;-96
2022/10/31 13:47:29;;;;;;;7.22;1.13;;;;;;;21.60;63.88;99731.56;6231066;22;20039;-93
2022/10/31 13:50:59;;;;;;;4.55;1.10;;;;;;;20.96;64.66;99725.16;6234006;23;20072;-93
2022/10/31 13:53:43;;;;;;;5.45;1.20;;;;;;;21.25;63.39;99712.75;6211346;23;20008;-95
2022/10/31 13:56:09;;;;;;;8.98;1.52;;;;;;;20.90;63.66;99719.75;6234506;23;20000;-96
2022/10/31 13:58:41;;;;;;;7.95;1.20;;;;;;;20.47;64.67;99699.09;6236414;23;20023;-96
2022/10/31 14:01:09;;;;;;;7.47;0.90;;;;;;;20.77;64.50;99720.41;6227959;23;20063;-95
2022/10/31 14:03:40;;;;;;;6.90;0.90;;;;;;;20.90;64.34;99701.91;6231773;23;20004;-96
2022/10/31 14:06:09;;;;;;;7.25;1.45;;;;;;;20.75;64.41;99704.63;6207505;23;20008;-96
2022/10/31 14:08:43;;;;;;;6.85;1.20;;;;;;;20.63;65.25;99697.28;6230469;23;20004;-94
2022/10/31 14:11:29;;;;;;;7.38;1.20;;;;;;;20.41;65.42;99690.00;6227331;23;20000;-95
2022/10/31 14:14:13;;;;;;;13.10;1.10;;;;;;;20.69;65.54;99689.34;6229903;23;20007;-94
2022/10/31 14:16:44;;;;;;;8.45;1.25;;;;;;;20.14;66.66;99691.50;6230929;23;20015;-95
2022/10/31 14:19:34;;;;;;;4.05;1.05;;;;;;;20.62;65.88;99685.78;6234601;23;20008;-96
2022/10/31 14:22:09;;;;;;;5.05;0.80;;;;;;;20.25;67.54;99668.06;6226089;23;20011;-96
2022/10/31 14:24:38;;;;;;;11.68;0.98;;;;;;;20.12;67.59;99674.88;6226888;23;20007;-96
2022/10/31 14:27:27;;;;;;;5.57;1.00;;;;;;;20.20;67.96;99655.28;6225524;23;20000;-96
2022/10/31 14:29:53;;;;;;;5.90;1.10;;;;;;;20.42;67.57;99648.19;6224730;23;20007;-95
2022/10/31 14:32:24;;;;;;;3.03;0.85;;;;;;;20.37;68.84;99639.91;6224710;23;20012;-96
2022/10/31 14:34:49;;;;;;;5.63;1.13;;;;;;;20.18;71.96;99650.16;6225440;23;20159;-96
2022/10/31 14:37:27;;;;;;;6.32;0.90;;;;;;;20.45;72.42;99647.81;6226275;23;20000;-96
2022/10/31 14:40:17;;;;;;;5.00;1.00;;;;;;;20.23;72.77;99638.09;6224417;23;20008;-96
2022/10/31 14:42:43;;;;;;;9.00;1.00;;;;;;;20.08;74.31;99630.94;6224181;23;20024;-95
2022/10/31 14:45:50;;;;;;;7.97;1.80;;;;;;;19.89;75.05;99615.53;6223834;23;20004;-95
2022/10/31 14:48:33;;;;;;;4.88;1.33;;;;;;;19.56;76.56;99615.84;6223603;23;20044;-96
2022/10/31 14:51:03;;;;;;;10.45;1.73;;;;;;;19.25;78.82;99598.16;6225201;23;20465;-95
2022/10/31 14:53:33;;;;;;;6.55;1.17;;;;;;;19.58;79.36;99597.84;6223355;23;20453;-96
2022/10/31 14:56:12;;;;;;;10.82;1.38;;;;;;;19.20;84.71;99569.44;6226133;23;20461;-96
2022/10/31 14:59:04;;;;;;;5.97;1.30;;;;;;;19.31;94.56;99584.16;6231228;23;20327;-96
2022/10/31 15:01:33;;;;;;;11.25;1.40;;;;;;;18.08;100.00;99584.94;6224981;23;20476;-96
2022/10/31 15:04:28;;;;;;;9.45;1.90;;;;;;;17.96;100.00;99559.78;6222806;23;19996;-96
2022/10/31 15:07:02;;;;;;;19.73;2.58;;;;;;;18.24;100.00;99563.59;6222132;23;20004;-95
2022/10/31 15:09:31;;;;;;;9.98;1.50;;;;;;;18.18;100.00;99553.69;6221078;23;20012;-94
2022/10/31 15:12:00;;;;;;;13.18;2.78;;;;;;;18.72;100.00;99562.66;6220639;23;20013;-96
2022/10/31 15:14:34;;;;;;;6.78;1.58;;;;;;;18.34;100.00;99557.25;6221667;23;19996;-95
2022/10/31 15:17:03;;;;;;;8.18;2.45;;;;;;;17.83;100.00;99552.31;6220630;23;20008;-95
2022/10/31 15:19:32;;;;;;;8.73;1.80;;;;;;;18.14;100.00;99551.56;6220871;23;20008;-95
2022/10/31 15:21:58;;;;;;;7.47;1.45;;;;;;;17.55;100.00;99525.38;6222743;23;20382;-96
2022/10/31 15:24:31;;;;;;;9.60;1.50;;;;;;;17.40;100.00;99530.59;6224004;23;20093;-96
2022/10/31 15:27:23;;;;;;;9.52;2.63;;;;;;;17.34;100.00;99504.72;6232468;23;20035;-96
2022/10/31 15:32:53;;;;;;;8.85;2.15;;;;;;;17.44;100.00;99481.47;6238728;22;20024;-96
2022/10/31 15:35:32;;;;;;;7.53;1.55;;;;;;;17.50;100.00;99493.22;6222119;23;20018;-96
2022/10/31 15:38:01;;;;;;;10.90;1.83;;;;;;;17.73;100.00;99472.91;6222659;23;20008;-96
2022/10/31 15:40:27;;;;;;;10.70;2.10;;;;;;;17.52;100.00;99462.03;6222766;23;20000;-96
2022/10/31 15:43:07;;;;;;;10.85;2.58;;;;;;;17.12;100.00;99461.16;6221765;23;20015;-95
2022/10/31 15:45:35;;;;;;;7.88;2.28;;;;;;;17.42;100.00;99463.06;6217334;23;20001;-94
2022/10/31 15:48:06;;;;;;;9.82;1.48;;;;;;;17.35;100.00;99453.31;6219771;23;20004;-94
2022/10/31 15:50:40;;;;;;;6.68;1.55;;;;;;;17.73;100.00;99450.81;6220680;23;20083;-94
2022/10/31 15:53:14;;;;;;;12.70;2.13;;;;;;;16.93;100.00;99449.13;6218823;23;20431;-94
2022/10/31 15:55:49;;;;;;;15.10;2.30;;;;;;;16.99;100.00;99448.44;6218779;23;20011;-92
2022/10/31 15:58:17;;;;;;;12.35;3.00;;;;;;;16.99;100.00;99440.47;6217919;23;20019;-91
2022/10/31 16:00:43;;;;;;;7.88;2.08;;;;;;;17.30;100.00;99432.59;6244678;23;20001;-92
2022/10/31 16:03:14;;;;;;;10.75;2.10;;;;;;;17.56;100.00;99420.88;6218465;23;20126;-94
2022/10/31 16:05:48;;;;;;;9.45;2.10;;;;;;;17.22;100.00;99401.63;6220625;23;20008;-96
2022/10/31 16:08:29;;;;;;;7.70;1.90;;;;;;;17.15;100.00;99407.78;6220550;23;20426;-95
2022/10/31 16:11:06;;;;;;;10.00;1.73;;;;;;;17.22;100.00;99392.84;6223790;23;20435;-96
2022/10/31 16:13:37;;;;;;;11.25;2.35;;;;;;;17.03;100.00;99399.38;6201833;23;20008;-93
2022/10/31 16:16:12;;;;;;;10.05;1.88;;;;;;;17.10;100.00;99383.59;6219479;23;20435;-94
2022/10/31 16:18:40;;;;;;;7.20;2.17;;;;;;;17.02;100.00;99374.69;6218217;23;20016;-92
2022/10/31 16:21:07;;;;;;;6.18;1.88;;;;;;;17.04;100.00;99359.44;6218538;23;20024;-92
2022/10/31 16:23:33;;;;;;;9.88;2.00;;;;;;;16.28;100.00;99373.13;6218654;23;20004;-92
2022/10/31 16:25:59;;;;;;;7.53;1.90;;;;;;;16.94;100.00;99347.34;6219124;23;20008;-93